Time;durP1;ratioP1;P1;durP2;ratioP2;P2;SDS_P1;SDS_P2;PMS_P1;PMS_P2;Temp;Humidity;BMP_temperature;BMP_pressure;BME280_temperature;BME280_humidity;BME280_pressure;Samples;Min_cycle;Max_cycle;Signal;HPM_P1;HPM_P2
2023/01/15 07:06:24;;;;;;;5.47;2.50;;;;;;;-145.79;71.25;77364.56;5280162;28;20901;-72
2023/01/15 07:08:56;;;;;;;8.98;2.78;;;;;;;-145.79;71.36;77370.91;5261390;28;20045;-72
2023/01/15 07:11:27;;;;;;;8.10;3.00;;;;;;;-145.79;71.31;77366.69;5239236;28;20026;-73
2023/01/15 07:14:07;;;;;;;6.68;2.30;;;;;;;-145.79;71.46;77368.78;5248157;28;20033;-73
2023/01/15 07:16:38;;;;;;;6.90;3.20;;;;;;;-145.79;71.19;77362.44;5258765;28;20021;-72
2023/01/15 07:19:10;;;;;;;8.52;2.38;;;;;;;-145.79;70.83;77368.78;5270814;28;20033;-72
2023/01/15 07:21:42;;;;;;;6.95;2.60;;;;;;;-145.79;71.07;77379.41;5261994;28;20096;-72
2023/01/15 07:24:14;;;;;;;6.35;2.03;;;;;;;-145.79;70.99;77377.28;5258149;28;20048;-73
2023/01/15 07:26:45;;;;;;;5.35;2.42;;;;;;;-145.79;70.73;77373.03;5258720;28;20029;-72
2023/01/15 07:29:16;;;;;;;6.90;3.47;;;;;;;-145.79;70.06;77373.03;5272107;28;20112;-72
2023/01/15 07:31:49;;;;;;;9.65;4.22;;;;;;;-145.79;69.83;77373.03;5260069;28;20040;-72
2023/01/15 07:34:20;;;;;;;5.43;2.13;;;;;;;-145.79;68.63;77377.28;5260952;28;20033;-72
2023/01/15 07:36:52;;;;;;;7.07;2.15;;;;;;;-145.79;68.20;77360.31;5272120;28;20027;-72
2023/01/15 07:39:23;;;;;;;5.70;2.10;;;;;;;-145.79;68.25;77368.78;5266996;28;20037;-72
2023/01/15 07:50:24;;;;;;;7.07;2.63;;;;;;;-145.79;67.12;77368.78;5257776;28;20041;-72
2023/01/15 07:52:56;;;;;;;6.65;2.15;;;;;;;-145.79;67.07;77385.75;5258243;28;20018;-72
2023/01/15 07:55:27;;;;;;;7.45;2.13;;;;;;;-145.79;67.20;77383.63;5258511;28;20017;-72
2023/01/15 07:57:59;;;;;;;6.45;2.15;;;;;;;-145.79;66.93;77379.41;5269686;28;20030;-72
2023/01/15 08:00:30;;;;;;;5.38;2.28;;;;;;;-145.79;66.87;77390.00;5253692;28;20049;-72
2023/01/15 08:03:02;;;;;;;8.02;2.58;;;;;;;-145.79;66.98;77402.72;5239187;28;20026;-72
2023/01/15 08:05:33;;;;;;;8.85;3.13;;;;;;;-145.79;66.27;77396.34;5256899;28;20515;-71
2023/01/15 08:08:05;;;;;;;9.18;2.80;;;;;;;-145.79;66.00;77404.84;5260919;28;20060;-72
2023/01/15 08:15:11;;;;;;;4.82;2.63;;;;;;;-145.79;66.10;77400.59;5278887;28;20028;-72
2023/01/15 08:16:17;;;;;;;3.90;2.20;;;;;;;-145.79;66.69;77417.53;5261657;28;20489;-72
2023/01/15 08:18:48;;;;;;;7.32;2.00;;;;;;;-145.79;66.52;77415.44;5227562;28;20022;-72
2023/01/15 08:21:20;;;;;;;4.32;1.83;;;;;;;-145.79;66.68;77417.53;5223120;28;20029;-72
2023/01/15 08:23:51;;;;;;;5.00;2.42;;;;;;;-145.79;66.20;77436.63;5242255;28;20471;-72
2023/01/15 08:26:23;;;;;;;7.18;2.25;;;;;;;-145.79;66.31;77432.38;5243691;28;20067;-72
2023/01/15 08:28:54;;;;;;;9.82;2.72;;;;;;;-145.79;66.81;77451.47;5244156;28;20024;-72
2023/01/15 08:31:26;;;;;;;7.72;2.17;;;;;;;-145.79;66.68;77440.88;5247476;28;20025;-71
2023/01/15 08:33:57;;;;;;;5.75;2.22;;;;;;;-145.79;66.62;77440.88;5242399;28;20034;-70
2023/01/15 08:36:28;;;;;;;4.85;2.88;;;;;;;-145.79;67.01;77447.22;5229351;28;20026;-70
2023/01/15 08:38:59;;;;;;;6.82;2.45;;;;;;;-145.79;67.04;77442.97;5253949;28;20031;-70
2023/01/15 08:41:31;;;;;;;7.05;2.00;;;;;;;-145.79;66.73;77436.63;5261508;28;20047;-70
2023/01/15 08:44:03;;;;;;;6.80;2.25;;;;;;;-145.79;67.29;77440.88;5244466;28;20025;-70
2023/01/15 08:46:34;;;;;;;7.57;3.20;;;;;;;-145.79;66.98;77445.09;5241976;28;20105;-70
2023/01/15 08:49:05;;;;;;;5.88;2.33;;;;;;;-145.79;67.31;77428.16;5242839;28;20037;-70
2023/01/15 08:51:37;;;;;;;7.80;2.00;;;;;;;-145.79;67.59;77436.63;5238102;28;20104;-70
2023/01/15 08:54:08;;;;;;;7.90;2.97;;;;;;;-145.79;67.95;77445.09;5222194;28;20557;-71
2023/01/15 08:56:39;;;;;;;6.18;2.38;;;;;;;-145.79;67.58;77432.38;5228920;28;20029;-70
2023/01/15 08:59:11;;;;;;;4.88;1.70;;;;;;;-145.79;67.56;77430.25;5242718;28;20037;-71
2023/01/15 09:01:43;;;;;;;6.40;3.03;;;;;;;-145.79;67.52;77436.63;5240859;28;20018;-71
2023/01/15 09:04:17;;;;;;;7.68;2.78;;;;;;;-145.79;67.60;77419.66;5243097;28;20056;-70
2023/01/15 09:06:49;;;;;;;8.25;2.50;;;;;;;-145.79;68.07;77419.66;5243154;28;20072;-71
2023/01/15 09:09:20;;;;;;;5.45;2.00;;;;;;;-145.79;67.61;77406.94;5230441;28;20049;-70
2023/01/15 09:11:51;;;;;;;9.70;2.22;;;;;;;-145.79;67.93;77415.44;5221136;28;20018;-70
2023/01/15 09:14:22;;;;;;;3.85;2.00;;;;;;;-145.79;67.93;77409.06;5220354;28;20080;-70
2023/01/15 09:16:54;;;;;;;7.70;2.05;;;;;;;-145.79;67.75;77402.72;5219332;28;20022;-70
2023/01/15 09:19:28;;;;;;;6.25;2.10;;;;;;;-145.79;67.47;77409.06;5220238;28;20393;-69
2023/01/15 09:21:59;;;;;;;5.32;2.20;;;;;;;-145.79;67.78;77400.59;5217387;28;20030;-70
2023/01/15 09:24:31;;;;;;;9.80;2.63;;;;;;;-145.79;67.66;77400.59;5218775;28;20388;-70
2023/01/15 09:27:02;;;;;;;6.80;2.55;;;;;;;-145.79;67.96;77398.47;5230080;28;20101;-70
2023/01/15 09:29:33;;;;;;;8.10;2.15;;;;;;;-145.79;67.53;77394.22;5238984;28;20025;-71
2023/01/15 09:32:06;;;;;;;7.78;2.55;;;;;;;-145.79;67.54;77385.75;5240712;28;20037;-70
2023/01/15 09:34:38;;;;;;;5.97;2.30;;;;;;;-145.79;67.13;77385.75;5240869;28;20036;-70
2023/01/15 09:37:09;;;;;;;8.38;2.50;;;;;;;-145.79;66.44;77373.03;5241585;28;20021;-70
2023/01/15 09:39:41;;;;;;;9.75;2.58;;;;;;;-145.79;66.55;77377.28;5242437;28;20028;-71
2023/01/15 09:42:27;;;;;;;9.35;2.50;;;;;;;-145.79;66.91;77373.03;5241733;28;20033;-71
2023/01/15 09:45:13;;;;;;;5.22;2.40;;;;;;;-145.79;66.34;77362.44;5241507;28;20033;-70
2023/01/15 09:47:47;;;;;;;11.35;2.25;;;;;;;-145.79;66.20;77385.75;5242270;28;20052;-70
2023/01/15 09:50:36;;;;;;;4.55;2.00;;;;;;;-145.79;66.09;77360.31;5241826;28;20107;-70
2023/01/15 09:53:19;;;;;;;6.28;2.67;;;;;;;-145.79;66.00;77360.31;5242102;28;20026;-70
2023/01/15 09:55:53;;;;;;;6.60;2.20;;;;;;;-145.79;65.39;77364.56;5242546;28;20388;-70
2023/01/15 09:58:32;;;;;;;6.55;2.50;;;;;;;-145.79;65.45;77373.03;5241355;28;20037;-70
2023/01/15 10:01:05;;;;;;;7.70;2.40;;;;;;;-145.79;64.66;77368.78;5225317;28;20048;-69
2023/01/15 10:03:39;;;;;;;5.63;2.20;;;;;;;-145.79;64.52;77368.78;5238897;28;20036;-70
2023/01/15 10:06:32;;;;;;;6.93;2.53;;;;;;;-145.79;64.37;77360.31;5241165;28;20053;-69
2023/01/15 10:09:33;;;;;;;7.40;2.67;;;;;;;-145.79;64.60;77362.44;5242170;28;20017;-68
2023/01/15 10:12:37;;;;;;;6.95;2.85;;;;;;;-145.79;64.72;77360.31;5240737;28;20455;-68
2023/01/15 10:15:36;;;;;;;7.55;2.28;;;;;;;-145.79;64.10;77351.84;5242083;28;20024;-68
2023/01/15 10:18:21;;;;;;;5.57;2.55;;;;;;;-145.79;64.00;77356.06;5221089;28;20595;-68
2023/01/15 10:21:08;;;;;;;9.30;2.50;;;;;;;-145.79;63.58;77366.69;5221316;28;20029;-68
2023/01/15 10:24:04;;;;;;;9.32;2.83;;;;;;;-145.79;63.95;77362.44;5221442;28;20034;-70
2023/01/15 10:26:51;;;;;;;7.97;2.65;;;;;;;-145.79;64.24;77368.78;5220188;28;20029;-70
2023/01/15 10:29:28;;;;;;;13.15;3.22;;;;;;;-145.79;64.54;77364.56;5221327;28;20033;-70
2023/01/15 10:32:30;;;;;;;8.43;2.45;;;;;;;-145.79;64.46;77358.19;5221134;28;20026;-70
2023/01/15 10:35:13;;;;;;;6.75;2.20;;;;;;;-145.79;64.57;77360.31;5221554;28;20099;-70
2023/01/15 10:38:01;;;;;;;6.47;2.10;;;;;;;-145.79;64.50;77366.69;5240073;28;20434;-69
2023/01/15 10:40:44;;;;;;;9.95;3.17;;;;;;;-145.79;64.60;77356.06;5238388;28;20037;-70
2023/01/15 10:43:43;;;;;;;5.07;2.20;;;;;;;-145.79;64.30;77347.59;5241441;28;20026;-69
2023/01/15 10:46:36;;;;;;;9.80;2.88;;;;;;;-145.79;63.99;77332.75;5239876;28;20571;-69
2023/01/15 10:49:17;;;;;;;6.80;2.38;;;;;;;-145.79;63.63;77330.66;5239985;28;20111;-69
2023/01/15 10:51:53;;;;;;;8.65;2.38;;;;;;;-145.79;63.63;77324.28;5225898;28;20108;-69
2023/01/15 10:54:33;;;;;;;7.40;2.50;;;;;;;-145.79;63.38;77315.81;5220177;28;20043;-69
2023/01/15 10:57:12;;;;;;;2.83;1.80;;;;;;;-145.79;63.29;77311.56;5225679;28;20030;-69
2023/01/15 10:59:50;;;;;;;4.53;1.90;;;;;;;-145.79;63.24;77305.22;5241187;28;20025;-69
2023/01/15 11:02:33;;;;;;;5.93;2.13;;;;;;;-145.79;62.81;77313.69;5240646;28;20025;-70
2023/01/15 11:05:05;;;;;;;5.90;2.13;;;;;;;-145.79;62.92;77300.97;5240879;28;20045;-70
2023/01/15 11:07:41;;;;;;;6.97;2.10;;;;;;;-145.79;62.73;77315.81;5235064;28;20026;-70
2023/01/15 11:10:14;;;;;;;;;;;;;;;-145.79;62.68;77300.97;5220645;28;20034;-70
2023/01/15 11:21:32;;;;;;;2.88;1.45;;;;;;;-145.79;62.72;77322.16;5219816;28;20074;-69
2023/01/15 11:24:14;;;;;;;5.13;1.75;;;;;;;-145.79;62.47;77305.22;5220901;28;20416;-69
2023/01/15 11:26:49;;;;;;;7.70;1.95;;;;;;;-145.79;62.48;77300.97;5220052;28;20521;-70
2023/01/15 11:29:31;;;;;;;3.05;1.88;;;;;;;-145.79;62.72;77317.94;5234119;28;20483;-69
2023/01/15 11:32:03;;;;;;;5.85;2.50;;;;;;;-145.79;62.83;77305.22;5240993;28;20080;-69
2023/01/15 11:34:39;;;;;;;3.30;1.60;;;;;;;-145.79;62.18;77305.22;5240992;28;20045;-71
2023/01/15 11:37:10;;;;;;;2.85;1.52;;;;;;;-145.79;63.08;77311.56;5239889;28;20053;-69
2023/01/15 11:39:51;;;;;;;3.30;1.45;;;;;;;-145.79;63.26;77313.69;5240777;28;20446;-70
2023/01/15 11:51:16;;;;;;;4.72;2.25;;;;;;;-145.79;63.12;77320.03;5240850;28;20038;-68
2023/01/15 11:53:53;;;;;;;4.72;1.60;;;;;;;-145.79;63.69;77324.28;5244818;28;20068;-70
2023/01/15 11:56:27;;;;;;;4.40;1.98;;;;;;;-145.79;63.40;77317.94;5244374;28;20053;-69
2023/01/15 11:59:03;;;;;;;6.75;1.77;;;;;;;-145.79;63.10;77315.81;5243891;28;20385;-69
2023/01/15 12:01:49;;;;;;;5.47;1.52;;;;;;;-145.79;62.58;77320.03;5244688;28;20030;-69
2023/01/15 12:04:41;;;;;;;7.05;1.67;;;;;;;-145.79;62.90;77313.69;5243415;28;20056;-69
2023/01/15 12:07:13;;;;;;;8.63;1.85;;;;;;;-145.79;62.57;77307.31;5244388;28;20476;-69
2023/01/15 12:09:50;;;;;;;4.85;1.55;;;;;;;-145.79;62.51;77309.44;5244282;28;20030;-69
2023/01/15 12:12:21;;;;;;;2.75;1.52;;;;;;;-145.79;62.57;77324.28;5243689;28;20419;-69
2023/01/15 12:14:56;;;;;;;4.47;1.58;;;;;;;-145.79;62.79;77303.09;5244326;28;20095;-69
2023/01/15 12:17:53;;;;;;;5.10;1.92;;;;;;;-145.79;62.84;77296.72;5243965;28;20451;-69
2023/01/15 12:20:53;;;;;;;4.07;1.77;;;;;;;-145.79;62.97;77305.22;5244359;28;20472;-69
2023/01/15 12:23:38;;;;;;;4.50;1.90;;;;;;;-145.79;63.10;77303.09;5243834;28;20087;-69
2023/01/15 12:26:17;;;;;;;2.53;1.90;;;;;;;-145.79;62.97;77296.72;5243312;28;20030;-70
2023/01/15 12:29:05;;;;;;;2.67;1.58;;;;;;;-145.79;62.89;77292.50;5244037;28;20044;-72
2023/01/15 12:31:42;;;;;;;2.45;1.45;;;;;;;-145.79;62.45;77313.69;5243183;28;20171;-71
2023/01/15 12:34:22;;;;;;;6.35;2.10;;;;;;;-145.79;62.90;77315.81;5235223;28;20159;-71
2023/01/15 12:37:11;;;;;;;5.30;2.15;;;;;;;-145.79;63.35;77300.97;5243757;28;20025;-72
2023/01/15 12:39:46;;;;;;;3.13;1.95;;;;;;;-145.79;63.00;77320.03;5243134;28;20069;-72
2023/01/15 12:45:19;;;;;;;3.20;1.60;;;;;;;-145.79;62.97;77292.50;5243642;28;20041;-71
2023/01/15 12:48:12;;;;;;;4.47;1.90;;;;;;;-145.79;63.23;77307.31;5242620;28;20392;-70
2023/01/15 12:50:50;;;;;;;5.22;2.25;;;;;;;-145.79;63.54;77313.69;5229240;28;20022;-72
2023/01/15 12:53:47;;;;;;;5.57;1.95;;;;;;;-145.79;64.07;77300.97;5237232;28;20041;-71
2023/01/15 12:56:18;;;;;;;3.28;1.52;;;;;;;-145.79;64.16;77313.69;5243165;28;20252;-70
2023/01/15 12:59:13;;;;;;;4.05;1.80;;;;;;;-145.79;64.44;77307.31;5242949;28;20059;-71
2023/01/15 13:02:16;;;;;;;4.43;2.60;;;;;;;-145.79;64.23;77303.09;5242346;28;20025;-70
2023/01/15 13:05:23;;;;;;;4.38;1.80;;;;;;;-145.79;64.08;77300.97;5242560;28;20045;-71
2023/01/15 13:08:00;;;;;;;5.88;3.00;;;;;;;-145.79;63.48;77292.50;5240501;28;20034;-71
2023/01/15 13:10:35;;;;;;;4.35;2.47;;;;;;;-145.79;63.38;77290.38;5242408;28;20047;-71
2023/01/15 13:13:24;;;;;;;7.97;2.30;;;;;;;-145.79;63.00;77300.97;5242873;28;20023;-70
2023/01/15 13:16:17;;;;;;;6.28;2.05;;;;;;;-145.79;63.15;77288.25;5242548;28;20028;-71
2023/01/15 13:19:13;;;;;;;5.47;2.00;;;;;;;-145.79;63.07;77279.78;5242687;28;20038;-72
2023/01/15 13:21:50;;;;;;;4.75;1.63;;;;;;;-145.79;63.06;77290.38;5242148;28;20080;-71
2023/01/15 13:24:54;;;;;;;5.53;2.20;;;;;;;-145.79;63.06;77309.44;5244537;28;20042;-72
2023/01/15 13:27:41;;;;;;;4.13;1.95;;;;;;;-145.79;62.18;77279.78;5222045;28;20029;-72
2023/01/15 13:30:18;;;;;;;3.80;1.80;;;;;;;-145.79;62.78;77277.66;5221390;28;20030;-73
2023/01/15 13:32:55;;;;;;;3.53;1.80;;;;;;;-145.79;62.38;77271.28;5229969;28;20082;-71
2023/01/15 13:35:45;;;;;;;5.63;3.17;;;;;;;-145.79;62.54;77258.56;5241859;28;20099;-71
2023/01/15 13:38:24;;;;;;;5.80;2.10;;;;;;;-145.79;62.00;77250.09;5241588;28;20026;-70
2023/01/15 13:40:56;;;;;;;4.20;1.92;;;;;;;-145.79;61.83;77252.22;5233859;28;20018;-71
2023/01/15 13:43:35;;;;;;;7.00;2.17;;;;;;;-145.79;61.66;77254.34;5220819;28;20191;-72
2023/01/15 13:46:12;;;;;;;3.58;1.60;;;;;;;-145.79;61.64;77254.34;5221593;28;20030;-72
2023/01/15 13:48:49;;;;;;;4.78;2.88;;;;;;;-145.79;61.63;77262.81;5221430;28;20133;-72
2023/01/15 13:51:27;;;;;;;9.50;3.67;;;;;;;-145.79;61.93;77271.28;5237021;28;20041;-73
2023/01/15 13:53:59;;;;;;;3.38;1.70;;;;;;;-145.79;61.88;77275.53;5242071;28;20033;-72
2023/01/15 13:56:34;;;;;;;5.97;3.65;;;;;;;-145.79;61.83;77290.38;5241394;28;20030;-71
2023/01/15 13:59:37;;;;;;;5.10;2.35;;;;;;;-145.79;62.27;77279.78;5224762;28;20034;-72
2023/01/15 14:02:26;;;;;;;4.22;2.20;;;;;;;-145.79;62.38;77275.53;5221289;28;20018;-72
2023/01/15 14:04:58;;;;;;;3.22;2.15;;;;;;;-145.79;62.00;77275.53;5233131;28;20064;-74
2023/01/15 14:07:35;;;;;;;4.30;1.83;;;;;;;-145.79;61.90;77275.53;5242107;28;20025;-73
2023/01/15 14:10:24;;;;;;;5.07;2.00;;;;;;;-145.79;62.16;77273.41;5241664;28;20033;-73
2023/01/15 14:12:58;;;;;;;5.00;2.33;;;;;;;-145.79;62.07;77286.13;5242172;28;20563;-72
2023/01/15 14:16:00;;;;;;;4.78;2.20;;;;;;;-145.79;62.25;77256.47;5228774;28;20080;-72
2023/01/15 14:19:09;;;;;;;6.35;4.28;;;;;;;-145.79;61.94;77258.56;5224873;28;20392;-72
2023/01/15 14:22:08;;;;;;;5.97;2.20;;;;;;;-145.79;62.05;77262.81;5242278;28;20061;-72
2023/01/15 14:25:00;;;;;;;4.53;2.00;;;;;;;-145.79;62.19;77262.81;5220410;28;20036;-72
2023/01/15 14:28:01;;;;;;;5.75;2.10;;;;;;;-145.79;61.99;77269.19;5221233;28;20061;-71
2023/01/15 14:30:51;;;;;;;7.35;2.65;;;;;;;-145.79;62.31;77271.28;5220839;28;20480;-72
2023/01/15 14:33:45;;;;;;;14.20;4.65;;;;;;;-145.79;62.62;77275.53;5225620;28;20144;-72
2023/01/15 14:36:25;;;;;;;4.68;2.03;;;;;;;-145.79;63.03;77298.84;5241310;28;20033;-73
2023/01/15 14:38:59;;;;;;;4.57;2.70;;;;;;;-145.79;63.33;77292.50;5240913;28;20079;-72
2023/01/15 14:43:00;;;;;;;2.92;1.60;;;;;;;-145.79;62.85;77303.09;5241324;28;20025;-73
2023/01/15 14:44:32;;;;;;;6.35;2.05;;;;;;;-145.79;62.54;77284.00;5241267;28;20488;-72
2023/01/15 14:47:22;;;;;;;7.57;1.92;;;;;;;-145.79;63.09;77305.22;5240453;28;20481;-74
2023/01/15 14:50:17;;;;;;;5.00;2.10;;;;;;;-145.79;62.59;77294.59;5224253;28;20073;-73
2023/01/15 14:52:51;;;;;;;4.00;2.13;;;;;;;-145.79;62.93;77313.69;5231012;28;20071;-72
2023/01/15 14:55:23;;;;;;;3.90;1.90;;;;;;;-145.79;63.11;77307.31;5241196;28;20412;-72
2023/01/15 14:57:57;;;;;;;3.75;1.63;;;;;;;-145.79;63.24;77315.81;5241012;28;20076;-72
2023/01/15 15:00:35;;;;;;;8.02;2.13;;;;;;;-145.79;62.78;77300.97;5240164;28;20029;-71
2023/01/15 15:03:16;;;;;;;7.45;2.10;;;;;;;-145.79;63.05;77313.69;5240480;28;20453;-72
2023/01/15 15:05:49;;;;;;;3.97;2.33;;;;;;;-145.79;62.88;77317.94;5233782;28;20045;-71
2023/01/15 15:08:26;;;;;;;6.35;3.03;;;;;;;-145.79;63.52;77326.41;5235794;28;20037;-70
2023/01/15 15:10:59;;;;;;;14.48;6.63;;;;;;;-145.79;63.72;77322.16;5241009;28;20029;-71
2023/01/15 15:13:35;;;;;;;6.72;2.03;;;;;;;-145.79;64.16;77326.41;5240129;28;20108;-70
2023/01/15 15:16:10;;;;;;;;;;;;;;;-145.79;63.42;77322.16;5241139;28;20048;-71
2023/01/15 15:18:57;;;;;;;5.03;1.95;;;;;;;-145.79;64.41;77341.25;5241184;28;19959;-71
2023/01/15 15:21:32;;;;;;;4.28;1.90;;;;;;;-145.79;64.32;77345.47;5239730;28;20021;-72
2023/01/15 15:24:19;;;;;;;4.25;1.83;;;;;;;-145.79;64.27;77358.19;5241326;28;20536;-71
2023/01/15 15:26:50;;;;;;;6.60;1.70;;;;;;;-145.79;64.53;77356.06;5242740;28;20034;-69
2023/01/15 15:29:22;;;;;;;4.28;1.80;;;;;;;-145.79;65.05;77353.97;5244383;28;20033;-70
2023/01/15 15:31:58;;;;;;;2.63;1.50;;;;;;;-145.79;64.65;77360.31;5243583;28;20021;-71
2023/01/15 15:34:38;;;;;;;3.92;2.50;;;;;;;-145.79;64.93;77347.59;5243785;28;20136;-70
2023/01/15 15:37:17;;;;;;;4.55;1.88;;;;;;;-145.79;65.12;77360.31;5244271;28;20060;-70
2023/01/15 15:39:54;;;;;;;4.05;1.60;;;;;;;-145.79;64.86;77364.56;5238253;28;20366;-70
2023/01/15 15:48:42;;;;;;;4.20;1.50;;;;;;;-145.79;65.85;77385.75;5244302;28;20041;-71
2023/01/15 15:51:22;;;;;;;5.32;2.75;;;;;;;-145.79;65.97;77381.50;5243370;28;20090;-71
2023/01/15 15:54:22;;;;;;;4.63;2.75;;;;;;;-145.79;65.97;77385.75;5244071;28;20099;-71
2023/01/15 15:57:08;;;;;;;4.85;2.47;;;;;;;-145.79;66.33;77387.88;5236122;28;20074;-71
2023/01/15 15:59:49;;;;;;;3.65;2.08;;;;;;;-145.79;66.64;77390.00;5246880;28;20025;-73
2023/01/15 16:02:30;;;;;;;3.25;2.10;;;;;;;-145.79;66.68;77400.59;5249308;28;20439;-71
2023/01/15 16:05:24;;;;;;;3.70;2.78;;;;;;;-145.79;66.74;77400.59;5260392;28;20045;-72
2023/01/15 16:08:16;;;;;;;5.10;4.13;;;;;;;-145.79;66.52;77398.47;5249544;28;20056;-70
2023/01/15 16:11:00;;;;;;;4.15;3.15;;;;;;;-145.79;66.43;77385.75;5244067;28;20022;-71
2023/01/15 16:13:33;;;;;;;5.93;2.92;;;;;;;-145.79;66.41;77398.47;5239250;28;20038;-70
2023/01/15 16:16:07;;;;;;;2.83;1.90;;;;;;;-145.79;66.66;77394.22;5233403;28;20025;-69
2023/01/15 16:18:43;;;;;;;4.88;2.95;;;;;;;-145.79;66.87;77394.22;5242721;28;20059;-72
2023/01/15 16:21:19;;;;;;;6.47;2.55;;;;;;;-145.79;66.44;77394.22;5243911;28;20026;-71
2023/01/15 16:23:57;;;;;;;;;;;;;;;-145.79;66.66;77396.34;5244119;28;20453;-71
2023/01/15 16:26:34;;;;;;;3.55;1.95;;;;;;;-145.79;66.71;77415.44;5243550;28;19913;-70
2023/01/15 16:29:16;;;;;;;4.75;1.90;;;;;;;-145.79;67.09;77428.16;5243087;28;20032;-71
2023/01/15 16:31:49;;;;;;;4.20;3.55;;;;;;;-145.79;67.36;77421.78;5234528;28;20029;-70
2023/01/15 16:34:24;;;;;;;4.72;1.90;;;;;;;-145.79;67.25;77421.78;5243675;28;20110;-70
2023/01/15 16:36:56;;;;;;;6.53;2.47;;;;;;;-145.79;67.07;77413.31;5242377;28;20427;-71
